Time;durP1;ratioP1;P1;durP2;ratioP2;P2;SDS_P1;SDS_P2;PMS_P1;PMS_P2;Temp;Humidity;BMP_temperature;BMP_pressure;BME280_temperature;BME280_humidity;BME280_pressure;Samples;Min_cycle;Max_cycle;Signal;HPM_P1;HPM_P2
2022/08/01 00:01:07;;;;;;;11.23;10.27;;;22.10;99.90;;;;;;5034342;28;20179;-69
2022/08/01 00:03:32;;;;;;;11.43;10.53;;;22.10;99.90;;;;;;5035122;28;20178;-68
2022/08/01 00:05:58;;;;;;;11.60;10.70;;;22.10;99.90;;;;;;5031585;28;20182;-69
2022/08/01 00:08:24;;;;;;;11.40;10.40;;;22.10;99.90;;;;;;5034097;28;20197;-68
2022/08/01 00:10:49;;;;;;;10.70;9.90;;;22.00;99.90;;;;;;5035111;28;20210;-68
2022/08/01 00:13:15;;;;;;;10.73;10.03;;;22.00;99.90;;;;;;5033071;28;20273;-68
2022/08/01 00:15:41;;;;;;;10.53;9.70;;;22.10;99.90;;;;;;5034049;28;20537;-68
2022/08/01 00:18:06;;;;;;;11.20;10.40;;;22.00;99.90;;;;;;5033405;28;20197;-68
2022/08/01 00:20:32;;;;;;;10.50;9.70;;;22.00;99.90;;;;;;5034550;28;20197;-68
2022/08/01 00:22:58;;;;;;;12.23;11.33;;;22.00;99.90;;;;;;5031767;28;20261;-70
2022/08/01 00:25:24;;;;;;;11.77;10.77;;;21.90;99.90;;;;;;5032327;28;20428;-68
2022/08/01 00:27:49;;;;;;;12.60;11.70;;;22.00;99.90;;;;;;5034752;28;20175;-68
2022/08/01 00:30:15;;;;;;;13.57;12.47;;;22.00;99.90;;;;;;5033797;28;20237;-68
2022/08/01 00:32:42;;;;;;;13.93;12.93;;;22.00;99.90;;;;;;5034697;28;20607;-68
2022/08/01 00:35:08;;;;;;;14.77;13.50;;;21.90;99.90;;;;;;5031342;28;20178;-68
2022/08/01 00:37:34;;;;;;;14.50;13.40;;;22.00;99.90;;;;;;5032340;28;20528;-68
2022/08/01 00:40:00;;;;;;;13.80;12.60;;;22.00;99.90;;;;;;5033670;28;20504;-69
2022/08/01 00:42:25;;;;;;;16.60;15.27;;;21.90;99.90;;;;;;5034415;28;20206;-68
2022/08/01 00:44:51;;;;;;;17.00;15.50;;;21.90;99.90;;;;;;5033174;28;20187;-68
2022/08/01 00:47:17;;;;;;;18.50;16.90;;;21.90;99.90;;;;;;5033567;28;20175;-68
2022/08/01 00:49:43;;;;;;;19.07;17.47;;;22.00;99.90;;;;;;5032600;28;20300;-68
2022/08/01 00:52:09;;;;;;;17.27;15.87;;;22.00;99.90;;;;;;5032536;28;20210;-68
2022/08/01 00:54:35;;;;;;;17.50;16.00;;;22.00;99.90;;;;;;5032900;28;20433;-68
2022/08/01 00:57:02;;;;;;;16.33;14.93;;;21.90;99.90;;;;;;5033355;28;20919;-69
2022/08/01 00:59:28;;;;;;;18.50;16.83;;;22.00;99.90;;;;;;5034170;28;20189;-68
2022/08/01 01:01:54;;;;;;;16.40;15.00;;;21.90;99.90;;;;;;5031856;28;20436;-68
2022/08/01 01:04:20;;;;;;;17.30;15.60;;;22.00;99.90;;;;;;5031026;28;20182;-69
2022/08/01 01:07:02;;;;;;;17.00;15.33;;;22.00;99.90;;;;;;5032998;28;20429;-68
2022/08/01 01:10:00;;;;;;;16.87;15.47;;;22.00;99.90;;;;;;5032062;28;20198;-68
2022/08/01 01:12:45;;;;;;;19.60;17.70;;;21.90;99.90;;;;;;5033075;28;20452;-68
2022/08/01 01:15:41;;;;;;;18.07;16.63;;;21.90;99.90;;;;;;5031952;28;20499;-68
2022/08/01 01:18:23;;;;;;;20.80;18.90;;;21.90;99.90;;;;;;5031110;28;20888;-69
2022/08/01 01:21:00;;;;;;;22.63;20.67;;;21.90;99.90;;;;;;5033432;28;20482;-68
2022/08/01 01:23:28;;;;;;;21.43;19.47;;;21.90;99.90;;;;;;5032123;28;20478;-68
2022/08/01 01:26:15;;;;;;;21.63;19.63;;;21.90;99.90;;;;;;5032411;28;20441;-68
2022/08/01 01:29:22;;;;;;;21.40;19.40;;;21.90;99.90;;;;;;5033446;28;20429;-68
2022/08/01 01:32:09;;;;;;;21.87;19.80;;;21.90;99.90;;;;;;5027450;28;20836;-68
2022/08/01 01:34:38;;;;;;;20.07;18.23;;;21.90;99.90;;;;;;5031402;28;20938;-68
2022/08/01 01:37:09;;;;;;;21.80;19.63;;;21.90;99.90;;;;;;5031691;28;20464;-69
2022/08/01 01:39:36;;;;;;;19.60;17.67;;;22.00;99.90;;;;;;5033314;28;20394;-68
2022/08/01 01:42:04;;;;;;;22.10;20.20;;;21.90;99.90;;;;;;5032800;28;20771;-70
2022/08/01 01:44:31;;;;;;;21.97;19.80;;;22.00;99.90;;;;;;5032097;28;20766;-69
2022/08/01 01:46:57;;;;;;;20.80;19.00;;;21.90;99.90;;;;;;5029373;28;20924;-69
2022/08/01 01:49:26;;;;;;;19.70;17.90;;;21.90;99.90;;;;;;5032362;28;21235;-68
2022/08/01 01:51:56;;;;;;;22.33;20.13;;;21.90;99.90;;;;;;5031409;28;20480;-68
2022/08/01 01:54:24;;;;;;;19.07;17.50;;;21.90;99.90;;;;;;5030752;28;21022;-69
2022/08/01 01:56:51;;;;;;;20.30;18.50;;;21.90;99.90;;;;;;5032197;28;20444;-68
2022/08/01 01:59:24;;;;;;;21.63;19.57;;;21.90;99.90;;;;;;5032149;28;20504;-68
2022/08/01 02:01:51;;;;;;;22.07;20.07;;;21.90;99.90;;;;;;5031687;28;20441;-68
2022/08/01 02:04:20;;;;;;;21.60;19.63;;;21.90;99.90;;;;;;5028470;28;20473;-69
2022/08/01 02:06:46;;;;;;;24.57;21.97;;;21.90;99.90;;;;;;5032931;28;20456;-68
2022/08/01 02:09:18;;;;;;;22.03;19.80;;;21.90;99.90;;;;;;4980785;28;20772;-69
2022/08/01 02:11:45;;;;;;;22.90;20.60;;;21.90;99.90;;;;;;5032853;28;20858;-68
2022/08/01 02:14:12;;;;;;;22.73;20.57;;;21.90;99.90;;;;;;5030794;28;20468;-69
2022/08/01 02:16:42;;;;;;;22.20;19.90;;;21.90;99.90;;;;;;5031485;28;20436;-68
2022/08/01 02:19:10;;;;;;;23.20;21.00;;;21.90;99.90;;;;;;5031645;28;20839;-69
2022/08/01 02:22:08;;;;;;;18.30;16.57;;;21.90;99.90;;;;;;5032811;28;20440;-68
2022/08/01 02:24:39;;;;;;;21.40;19.40;;;21.90;99.90;;;;;;5030719;28;20441;-68
2022/08/01 02:27:12;;;;;;;22.20;19.97;;;21.90;99.90;;;;;;5032096;28;20463;-70
2022/08/01 02:29:43;;;;;;;22.77;20.60;;;21.90;99.90;;;;;;5031375;28;20441;-68
2022/08/01 02:32:16;;;;;;;21.53;19.63;;;21.90;99.90;;;;;;5031659;28;20482;-69
2022/08/01 02:34:46;;;;;;;22.77;20.67;;;21.90;99.90;;;;;;5030561;28;20433;-69
2022/08/01 02:37:12;;;;;;;23.17;20.70;;;21.90;99.90;;;;;;5012181;28;20417;-69
2022/08/01 02:39:39;;;;;;;18.97;17.20;;;21.90;99.90;;;;;;5011573;28;20406;-68
2022/08/01 02:42:07;;;;;;;22.27;19.90;;;21.90;99.90;;;;;;5017277;28;20453;-70
2022/08/01 02:44:37;;;;;;;24.07;21.93;;;21.90;99.90;;;;;;5031064;28;20523;-68
2022/08/01 02:47:04;;;;;;;22.60;20.37;;;21.90;99.90;;;;;;4980155;28;20433;-70
2022/08/01 02:49:41;;;;;;;24.20;21.80;;;21.90;99.90;;;;;;5031665;28;20425;-68
2022/08/01 02:52:09;;;;;;;24.60;22.10;;;21.90;99.90;;;;;;5030544;28;20472;-70
2022/08/01 02:54:37;;;;;;;25.37;22.77;;;21.90;99.90;;;;;;5030735;28;20460;-68
2022/08/01 02:57:05;;;;;;;24.53;22.03;;;21.90;99.90;;;;;;5032201;28;20410;-68
2022/08/01 02:59:33;;;;;;;24.23;21.93;;;21.90;99.90;;;;;;5031872;28;20455;-72
2022/08/01 03:02:01;;;;;;;23.77;21.50;;;21.90;99.90;;;;;;5029647;28;20551;-71
2022/08/01 03:04:27;;;;;;;23.43;20.77;;;21.90;99.90;;;;;;5030127;28;20439;-71
2022/08/01 03:06:58;;;;;;;22.70;20.50;;;21.90;99.90;;;;;;5031149;28;20908;-72
2022/08/01 03:09:27;;;;;;;23.37;21.20;;;21.90;99.90;;;;;;5025966;28;20883;-72
2022/08/01 03:11:55;;;;;;;23.23;20.93;;;21.90;99.90;;;;;;4977461;28;20473;-71
2022/08/01 03:14:24;;;;;;;23.50;21.30;;;21.90;99.90;;;;;;5023315;28;20464;-72
2022/08/01 03:16:52;;;;;;;22.50;20.23;;;21.90;99.90;;;;;;5031725;28;20421;-72
2022/08/01 03:19:19;;;;;;;24.07;21.77;;;21.90;99.90;;;;;;5031261;28;20409;-72
2022/08/01 03:21:48;;;;;;;21.50;19.30;;;21.90;99.90;;;;;;5032143;28;20439;-71
2022/08/01 03:24:16;;;;;;;23.20;20.80;;;21.90;99.90;;;;;;5029880;28;20432;-72
2022/08/01 03:26:42;;;;;;;26.20;21.40;;;21.90;99.90;;;;;;5031890;28;20420;-71
2022/08/01 03:29:16;;;;;;;21.67;19.53;;;21.90;99.90;;;;;;5031387;28;20409;-72
2022/08/01 03:31:44;;;;;;;22.03;19.97;;;21.90;99.90;;;;;;5031924;28;20579;-72
2022/08/01 03:34:10;;;;;;;22.20;19.93;;;21.90;99.90;;;;;;5025015;28;20433;-72
2022/08/01 03:36:51;;;;;;;23.00;20.63;;;21.90;99.90;;;;;;5030917;28;20440;-71
2022/08/01 03:39:19;;;;;;;24.07;21.67;;;21.90;99.90;;;;;;5031054;28;20393;-72
2022/08/01 03:41:52;;;;;;;23.37;21.07;;;21.90;99.90;;;;;;5030597;28;20445;-72
2022/08/01 03:44:22;;;;;;;24.30;21.70;;;21.90;99.90;;;;;;5029808;28;20436;-72
2022/08/01 03:46:56;;;;;;;25.27;22.60;;;21.90;99.90;;;;;;5031809;28;20389;-72
2022/08/01 03:49:26;;;;;;;24.70;22.10;;;21.90;99.90;;;;;;5031251;28;20748;-71
2022/08/01 03:51:53;;;;;;;24.73;22.33;;;21.90;99.90;;;;;;5031317;28;20570;-71
2022/08/01 03:54:24;;;;;;;25.53;22.30;;;21.90;99.90;;;;;;5028645;28;20440;-72
2022/08/01 03:56:51;;;;;;;25.57;22.90;;;21.90;99.90;;;;;;4996731;28;20475;-71
2022/08/01 03:59:18;;;;;;;26.47;23.77;;;21.90;99.90;;;;;;5033599;28;20409;-72
2022/08/01 04:01:46;;;;;;;29.83;26.43;;;21.90;99.90;;;;;;5034936;28;20500;-72
2022/08/01 04:04:12;;;;;;;27.60;24.60;;;21.90;99.90;;;;;;5032818;28;20974;-72
2022/08/01 04:06:44;;;;;;;26.13;22.50;;;21.90;99.90;;;;;;5035143;28;20409;-71
2022/08/01 04:09:11;;;;;;;26.73;23.77;;;21.90;99.90;;;;;;5034678;28;20433;-72
2022/08/01 04:11:37;;;;;;;24.70;22.10;;;21.90;99.90;;;;;;5034881;28;20456;-71
2022/08/01 04:14:03;;;;;;;25.97;23.33;;;21.90;99.90;;;;;;5033917;28;20429;-71
2022/08/01 04:16:29;;;;;;;25.87;22.77;;;21.90;99.90;;;;;;5034139;28;20469;-72
2022/08/01 04:18:55;;;;;;;26.20;23.40;;;21.90;99.90;;;;;;5033731;28;20729;-72
2022/08/01 04:21:27;;;;;;;26.50;23.77;;;21.80;99.90;;;;;;5032698;28;20301;-72
2022/08/01 04:23:54;;;;;;;25.73;22.83;;;21.80;99.90;;;;;;5033692;28;20924;-71
2022/08/01 04:26:21;;;;;;;24.47;21.87;;;21.80;99.90;;;;;;5033070;28;20425;-72
2022/08/01 04:28:49;;;;;;;26.17;23.57;;;21.80;99.90;;;;;;5034754;28;20779;-71
2022/08/01 04:31:17;;;;;;;25.43;22.77;;;21.80;99.90;;;;;;5032759;28;20461;-72
2022/08/01 04:33:47;;;;;;;24.97;22.37;;;21.80;99.90;;;;;;5030856;28;20437;-72
2022/08/01 04:36:15;;;;;;;24.93;22.33;;;21.80;99.90;;;;;;5034006;28;20431;-72
2022/08/01 04:38:45;;;;;;;25.67;23.00;;;21.80;99.90;;;;;;5034442;28;20416;-72
2022/08/01 04:41:13;;;;;;;25.40;22.70;;;21.80;99.90;;;;;;5034430;28;20400;-72
2022/08/01 04:43:41;;;;;;;25.67;23.00;;;21.80;99.90;;;;;;5032035;28;20482;-72
2022/08/01 04:46:08;;;;;;;25.53;21.67;;;21.80;99.90;;;;;;5034621;28;20758;-72
2022/08/01 04:48:39;;;;;;;24.27;21.67;;;21.80;99.90;;;;;;5033492;28;20412;-72
2022/08/01 04:51:17;;;;;;;23.83;21.33;;;21.80;99.90;;;;;;5032889;28;20477;-72
2022/08/01 04:53:45;;;;;;;24.00;21.30;;;21.80;99.90;;;;;;5032344;28;20436;-72
2022/08/01 04:56:12;;;;;;;23.30;19.00;;;21.90;99.90;;;;;;5033921;28;20405;-72
2022/08/01 04:58:40;;;;;;;21.50;19.17;;;21.80;99.90;;;;;;5033691;28;20408;-72
2022/08/01 05:01:06;;;;;;;21.40;19.17;;;21.90;99.90;;;;;;5028324;28;20426;-72
2022/08/01 05:03:33;;;;;;;21.37;18.80;;;21.90;99.90;;;;;;5030827;28;20514;-72
2022/08/01 05:05:59;;;;;;;26.03;20.83;;;21.90;99.90;;;;;;5021181;28;20936;-72
2022/08/01 05:08:24;;;;;;;25.80;22.90;;;21.90;99.90;;;;;;5033183;28;20413;-72
2022/08/01 05:10:50;;;;;;;24.23;19.60;;;21.90;99.90;;;;;;5030736;28;20210;-72
2022/08/01 05:13:16;;;;;;;21.17;19.07;;;21.90;99.90;;;;;;5028794;28;20661;-74
2022/08/01 05:15:42;;;;;;;20.53;18.63;;;21.90;99.90;;;;;;5033942;28;20217;-74
2022/08/01 05:18:07;;;;;;;21.37;19.27;;;22.00;99.90;;;;;;5033088;28;20183;-73
2022/08/01 05:20:33;;;;;;;21.60;19.30;;;22.10;99.90;;;;;;5033042;28;20411;-73
2022/08/01 05:22:59;;;;;;;20.10;18.20;;;22.20;99.90;;;;;;5032744;28;20202;-74
2022/08/01 05:25:25;;;;;;;20.23;18.00;;;22.30;99.90;;;;;;5031597;28;20218;-73
2022/08/01 05:27:51;;;;;;;18.90;17.10;;;22.40;99.90;;;;;;5033593;28;20178;-72
2022/08/01 05:30:17;;;;;;;20.17;18.07;;;22.60;99.90;;;;;;5030782;28;20266;-75
2022/08/01 05:32:43;;;;;;;19.43;17.57;;;22.70;99.90;;;;;;5019829;28;20462;-71
2022/08/01 05:35:09;;;;;;;20.07;17.90;;;22.70;99.90;;;;;;5031484;28;20839;-71
2022/08/01 05:37:35;;;;;;;19.30;17.20;;;22.80;99.90;;;;;;5027273;28;20202;-72
2022/08/01 05:40:01;;;;;;;18.80;17.07;;;22.80;99.90;;;;;;5022436;28;20889;-71
2022/08/01 05:42:26;;;;;;;17.70;16.10;;;22.80;99.90;;;;;;5032847;28;20221;-71
2022/08/01 05:44:52;;;;;;;18.03;16.23;;;22.90;99.90;;;;;;5031871;28;20437;-71
2022/08/01 05:47:18;;;;;;;17.30;15.60;;;22.90;99.90;;;;;;5031306;28;20182;-72
2022/08/01 05:49:45;;;;;;;16.03;14.47;;;22.90;99.90;;;;;;5031014;28;20622;-71
2022/08/01 05:52:11;;;;;;;18.90;16.90;;;23.00;99.90;;;;;;5029082;28;20553;-74
2022/08/01 05:54:37;;;;;;;19.57;17.43;;;23.00;99.90;;;;;;5028488;28;20783;-70
2022/08/01 05:57:03;;;;;;;20.00;17.33;;;23.00;99.90;;;;;;5019756;28;20447;-71
2022/08/01 05:59:30;;;;;;;19.60;17.70;;;23.10;99.90;;;;;;5026138;28;20444;-74
2022/08/01 06:01:56;;;;;;;18.70;16.90;;;23.10;99.90;;;;;;5034960;28;20437;-70
2022/08/01 06:04:21;;;;;;;18.03;16.40;;;23.10;99.90;;;;;;5026464;28;20424;-71
2022/08/01 06:06:47;;;;;;;20.20;16.40;;;23.10;99.90;;;;;;5018163;28;20454;-70
2022/08/01 06:09:13;;;;;;;18.23;16.43;;;23.10;99.90;;;;;;5013213;28;20258;-71
2022/08/01 06:11:39;;;;;;;17.90;16.03;;;23.20;99.90;;;;;;5027145;28;20202;-71
2022/08/01 06:14:05;;;;;;;19.20;17.37;;;23.20;99.90;;;;;;5022504;28;20173;-70
2022/08/01 06:16:30;;;;;;;18.87;15.93;;;23.20;99.90;;;;;;5029100;28;20197;-70
2022/08/01 06:18:56;;;;;;;16.80;15.07;;;23.20;99.90;;;;;;5018329;28;20186;-71
2022/08/01 06:21:22;;;;;;;14.90;13.60;;;23.20;99.90;;;;;;5029248;28;20198;-70
2022/08/01 06:23:47;;;;;;;15.73;14.30;;;23.20;99.90;;;;;;5030191;28;20181;-70
2022/08/01 06:26:13;;;;;;;15.23;13.83;;;23.20;99.90;;;;;;5032757;28;20687;-70
2022/08/01 06:28:39;;;;;;;14.47;13.17;;;23.20;99.90;;;;;;5039941;28;20166;-70
2022/08/01 06:31:04;;;;;;;15.33;14.03;;;23.30;99.90;;;;;;5045621;28;20214;-75
2022/08/01 06:33:30;;;;;;;13.67;12.47;;;23.30;99.90;;;;;;5021099;28;20178;-70
2022/08/01 06:35:56;;;;;;;15.80;14.40;;;23.30;99.90;;;;;;5007973;28;20231;-70
2022/08/01 06:38:22;;;;;;;16.20;14.80;;;23.30;99.90;;;;;;4999606;28;20480;-67
2022/08/01 06:40:48;;;;;;;16.17;14.63;;;23.30;99.90;;;;;;5010655;28;20187;-67
2022/08/01 06:43:15;;;;;;;14.80;13.40;;;23.20;99.90;;;;;;5012788;28;20425;-67
2022/08/01 06:45:41;;;;;;;13.90;12.53;;;23.10;99.90;;;;;;5017405;28;20273;-67
2022/08/01 06:48:07;;;;;;;13.83;12.50;;;23.10;99.90;;;;;;5002336;28;20576;-67
2022/08/01 06:50:35;;;;;;;14.03;12.57;;;23.00;99.90;;;;;;5006450;28;20486;-67
2022/08/01 06:53:01;;;;;;;12.67;11.33;;;22.90;99.90;;;;;;5013515;28;20194;-67
2022/08/01 06:55:26;;;;;;;14.23;12.83;;;22.80;99.90;;;;;;5022106;28;20452;-67
2022/08/01 06:57:52;;;;;;;13.77;12.60;;;22.70;99.90;;;;;;5010584;28;20258;-67
2022/08/01 07:00:22;;;;;;;13.10;11.90;;;22.70;99.90;;;;;;5011285;28;20183;-73
2022/08/01 07:02:49;;;;;;;12.73;11.43;;;22.70;99.90;;;;;;5016218;28;20421;-67
2022/08/01 07:05:15;;;;;;;14.70;13.40;;;22.60;99.90;;;;;;5010532;28;20498;-67
2022/08/01 07:07:41;;;;;;;14.00;12.90;;;22.60;99.90;;;;;;5027599;28;20442;-67
2022/08/01 07:10:08;;;;;;;13.90;12.80;;;22.60;99.90;;;;;;5032497;28;20515;-67
2022/08/01 07:12:36;;;;;;;14.10;12.90;;;22.60;99.90;;;;;;5028995;28;20166;-67
2022/08/01 07:15:03;;;;;;;14.10;12.80;;;22.60;99.90;;;;;;5032493;28;20408;-67
2022/08/01 07:17:29;;;;;;;15.53;12.83;;;22.60;99.90;;;;;;5031876;28;20423;-67
2022/08/01 07:19:55;;;;;;;14.00;12.70;;;22.60;99.90;;;;;;5037895;28;20428;-67
2022/08/01 07:22:21;;;;;;;13.97;12.77;;;22.60;99.90;;;;;;5026479;28;20538;-67
2022/08/01 07:24:46;;;;;;;13.00;11.90;;;22.60;99.90;;;;;;5031073;28;20175;-68
2022/08/01 07:27:12;;;;;;;10.10;9.30;;;22.60;99.90;;;;;;5024590;28;20633;-67
2022/08/01 07:29:38;;;;;;;10.00;9.13;;;22.60;99.90;;;;;;5031535;28;20174;-67
2022/08/01 07:32:04;;;;;;;10.60;9.80;;;22.60;99.90;;;;;;5035737;28;20218;-67
2022/08/01 07:34:30;;;;;;;11.60;10.70;;;22.60;99.90;;;;;;5019171;28;20276;-67
2022/08/01 07:36:55;;;;;;;11.93;10.93;;;22.70;99.90;;;;;;5036357;28;20435;-66
2022/08/01 07:39:21;;;;;;;11.70;10.60;;;22.70;99.90;;;;;;5035652;28;20405;-67
2022/08/01 07:41:47;;;;;;;12.73;11.67;;;22.70;99.90;;;;;;5035032;28;20265;-66
2022/08/01 07:44:13;;;;;;;13.17;12.00;;;22.80;99.90;;;;;;5032259;28;20509;-66
2022/08/01 07:46:40;;;;;;;11.50;10.60;;;22.90;99.90;;;;;;5032807;28;20590;-66
2022/08/01 07:49:05;;;;;;;11.30;10.40;;;23.00;99.90;;;;;;5034035;28;20780;-66
2022/08/01 07:51:31;;;;;;;11.57;10.67;;;23.00;99.90;;;;;;5027804;28;20477;-67
2022/08/01 07:53:56;;;;;;;12.53;11.50;;;23.10;99.90;;;;;;4989112;28;20202;-66
2022/08/01 07:56:23;;;;;;;12.10;11.20;;;23.20;99.90;;;;;;5027236;28;20216;-66
2022/08/01 07:58:50;;;;;;;12.70;11.60;;;23.10;99.90;;;;;;5034170;28;20265;-70
2022/08/01 08:01:16;;;;;;;13.77;12.57;;;23.10;99.90;;;;;;5035786;28;20409;-66
2022/08/01 08:03:41;;;;;;;14.10;12.80;;;23.20;99.90;;;;;;5037938;28;20714;-66
2022/08/01 08:06:07;;;;;;;13.97;12.77;;;23.20;99.90;;;;;;5034687;28;20305;-66
2022/08/01 08:08:34;;;;;;;14.00;12.73;;;23.30;99.90;;;;;;5031305;28;20614;-66
2022/08/01 08:11:01;;;;;;;13.20;12.10;;;23.30;99.90;;;;;;5035515;28;20233;-66
2022/08/01 08:13:27;;;;;;;14.13;12.93;;;23.50;99.90;;;;;;5033910;28;20413;-66
2022/08/01 08:15:53;;;;;;;13.30;12.20;;;23.50;99.90;;;;;;5034202;28;20873;-66
2022/08/01 08:18:18;;;;;;;13.63;12.53;;;23.60;99.90;;;;;;5034202;28;20432;-66
2022/08/01 08:20:44;;;;;;;13.50;12.20;;;23.70;99.90;;;;;;5034834;28;20569;-66
2022/08/01 08:25:54;;;;;;;12.60;11.50;;;23.80;99.90;;;;;;5035344;28;20396;-66
2022/08/01 08:28:20;;;;;;;11.50;10.60;;;23.90;99.90;;;;;;5033969;28;20421;-66
2022/08/01 08:30:46;;;;;;;13.07;12.00;;;24.00;99.90;;;;;;5034337;28;20209;-65
2022/08/01 08:33:12;;;;;;;11.50;10.60;;;24.10;99.90;;;;;;5034788;28;20174;-66
2022/08/01 08:35:40;;;;;;;11.60;10.70;;;24.20;99.90;;;;;;4999402;28;20178;-66
2022/08/01 08:38:06;;;;;;;9.90;9.10;;;24.10;99.90;;;;;;5033631;28;20174;-66
2022/08/01 08:40:35;;;;;;;8.63;8.03;;;24.10;99.90;;;;;;5034373;28;20412;-66
2022/08/01 08:43:03;;;;;;;8.70;8.10;;;24.00;99.90;;;;;;5033871;28;20433;-66
2022/08/01 08:45:30;;;;;;;8.73;8.13;;;24.00;99.90;;;;;;5032802;28;20489;-68
2022/08/01 08:47:56;;;;;;;9.43;8.80;;;24.10;99.90;;;;;;5033894;28;20512;-66
2022/08/01 08:50:24;;;;;;;8.70;8.03;;;24.10;99.90;;;;;;5008296;28;21007;-66
2022/08/01 08:52:53;;;;;;;9.83;9.13;;;24.20;99.90;;;;;;5023388;28;20433;-69
2022/08/01 08:55:19;;;;;;;9.87;9.20;;;24.30;99.90;;;;;;5030306;28;20429;-66
2022/08/01 08:57:45;;;;;;;9.37;8.77;;;24.40;99.90;;;;;;5033279;28;20583;-66
2022/08/01 09:00:12;;;;;;;8.70;7.90;;;24.50;99.90;;;;;;5033261;28;20976;-66
2022/08/01 09:02:48;;;;;;;9.17;8.57;;;24.60;99.90;;;;;;5031931;28;21024;-66
2022/08/01 09:05:14;;;;;;;7.97;7.47;;;24.70;99.90;;;;;;5032515;28;20436;-66
2022/08/01 09:07:40;;;;;;;8.03;7.53;;;24.70;99.90;;;;;;5033694;28;20419;-66
2022/08/01 09:10:07;;;;;;;8.10;7.60;;;24.80;99.90;;;;;;5036228;28;20923;-66
2022/08/01 09:12:33;;;;;;;7.70;7.20;;;24.90;99.90;;;;;;5039176;28;20220;-66
2022/08/01 09:14:59;;;;;;;8.40;8.00;;;24.90;99.90;;;;;;5020464;28;20429;-66
2022/08/01 09:17:24;;;;;;;7.10;6.70;;;25.10;99.90;;;;;;5023510;28;20520;-66
2022/08/01 09:19:54;;;;;;;6.83;6.43;;;25.30;99.90;;;;;;5031064;28;20240;-66
2022/08/01 09:22:24;;;;;;;6.87;6.47;;;25.40;99.90;;;;;;5031663;28;20206;-66
2022/08/01 09:25:10;;;;;;;8.37;7.77;;;25.50;99.90;;;;;;5029968;28;21011;-66
2022/08/01 09:27:38;;;;;;;7.50;6.90;;;25.50;99.90;;;;;;5030841;28;20432;-67
2022/08/01 09:30:13;;;;;;;7.80;7.40;;;25.50;99.70;;;;;;5030481;28;20471;-66
2022/08/01 09:33:00;;;;;;;8.50;7.80;;;25.40;99.90;;;;;;5031003;28;20433;-66
2022/08/01 09:35:36;;;;;;;8.90;8.40;;;25.40;99.90;;;;;;5031564;28;20989;-66
2022/08/01 09:38:19;;;;;;;8.43;7.73;;;25.30;99.90;;;;;;5032537;28;20423;-66
2022/08/01 09:40:56;;;;;;;7.17;6.73;;;25.30;99.90;;;;;;5011243;28;20811;-66
2022/08/01 09:43:24;;;;;;;7.57;7.07;;;25.30;99.90;;;;;;5026951;28;20441;-67
2022/08/01 09:45:50;;;;;;;6.90;6.50;;;25.30;99.90;;;;;;5030625;28;20441;-67
2022/08/01 09:48:17;;;;;;;7.87;7.37;;;25.30;99.60;;;;;;5024779;28;20458;-66
2022/08/01 09:50:44;;;;;;;7.30;6.83;;;25.20;99.90;;;;;;5026335;28;21018;-66
2022/08/01 09:53:10;;;;;;;7.43;7.03;;;25.10;99.90;;;;;;5031806;28;20943;-66
2022/08/01 09:55:38;;;;;;;7.50;7.00;;;25.00;99.90;;;;;;5022475;28;20441;-67
2022/08/01 09:58:04;;;;;;;7.93;7.33;;;25.10;99.90;;;;;;5033445;28;20474;-66
2022/08/01 10:00:32;;;;;;;8.13;7.60;;;25.30;99.90;;;;;;5031503;28;20444;-66
2022/08/01 10:02:58;;;;;;;8.50;8.00;;;25.50;99.90;;;;;;5027011;28;20428;-67
2022/08/01 10:05:31;;;;;;;9.53;8.97;;;25.60;99.40;;;;;;5029521;28;20451;-66
2022/08/01 10:08:01;;;;;;;8.80;8.17;;;25.70;99.70;;;;;;5013609;28;20410;-66
2022/08/01 10:10:27;;;;;;;8.80;8.13;;;25.70;99.00;;;;;;5013619;28;20488;-66
2022/08/01 10:12:55;;;;;;;9.67;9.07;;;25.70;99.10;;;;;;5030432;28;20468;-66
2022/08/01 10:15:23;;;;;;;9.60;9.00;;;25.70;98.90;;;;;;5033185;28;20462;-66
2022/08/01 10:18:05;;;;;;;8.70;8.10;;;25.70;99.30;;;;;;5032515;28;20417;-66
2022/08/01 10:20:32;;;;;;;7.70;7.20;;;25.60;99.80;;;;;;5032521;28;20515;-66
2022/08/01 10:23:00;;;;;;;6.90;6.50;;;25.60;99.50;;;;;;5032896;28;20432;-66
2022/08/01 10:25:29;;;;;;;7.40;7.00;;;25.50;99.70;;;;;;5031370;28;20949;-65
2022/08/01 10:27:56;;;;;;;8.17;7.67;;;25.50;99.90;;;;;;5030551;28;20483;-66
2022/08/01 10:30:22;;;;;;;7.57;7.17;;;25.60;99.90;;;;;;5032780;28;20409;-65
2022/08/01 10:32:49;;;;;;;7.87;7.37;;;25.70;99.90;;;;;;5032274;28;20503;-66
2022/08/01 10:35:17;;;;;;;8.77;8.27;;;25.90;99.90;;;;;;5032774;28;20413;-65
2022/08/01 10:37:50;;;;;;;8.50;8.00;;;26.00;99.60;;;;;;5032209;28;20512;-66
2022/08/01 10:40:16;;;;;;;9.47;8.87;;;26.10;99.00;;;;;;5032847;28;20726;-65
2022/08/01 10:42:45;;;;;;;8.73;8.23;;;26.20;97.90;;;;;;5009915;28;20414;-66
2022/08/01 10:45:15;;;;;;;7.90;7.40;;;26.20;97.50;;;;;;5008188;28;20537;-65
2022/08/01 10:47:45;;;;;;;7.00;6.60;;;26.20;97.00;;;;;;5010016;28;20410;-66
2022/08/01 10:50:17;;;;;;;7.93;7.50;;;26.40;98.00;;;;;;5010302;28;20497;-66
2022/08/01 10:53:23;;;;;;;7.07;6.67;;;26.50;96.60;;;;;;5009916;28;20463;-66
2022/08/01 10:55:55;;;;;;;7.40;7.00;;;26.60;95.50;;;;;;5009408;28;20906;-66
2022/08/01 10:58:27;;;;;;;8.10;7.70;;;26.70;94.70;;;;;;5010537;28;20900;-66
2022/08/01 11:01:13;;;;;;;7.53;7.13;;;26.60;93.70;;;;;;5008619;28;20437;-65
2022/08/01 11:03:40;;;;;;;6.93;6.63;;;26.50;93.30;;;;;;5009729;28;20437;-66
2022/08/01 11:06:06;;;;;;;7.50;7.10;;;26.40;93.60;;;;;;5010298;28;20414;-66
2022/08/01 11:08:37;;;;;;;7.80;7.30;;;26.40;94.50;;;;;;5013957;28;20449;-66
2022/08/01 11:11:04;;;;;;;7.40;7.00;;;26.40;95.50;;;;;;5014440;28;20476;-66
2022/08/01 11:13:58;;;;;;;6.80;6.40;;;26.30;95.20;;;;;;5023568;28;20527;-66
2022/08/01 11:16:28;;;;;;;7.10;6.70;;;26.20;96.30;;;;;;5012920;28;20437;-65
2022/08/01 11:18:54;;;;;;;7.07;6.67;;;26.10;95.80;;;;;;5013751;28;20433;-66
2022/08/01 11:21:23;;;;;;;6.13;5.83;;;26.10;96.60;;;;;;5014227;28;20438;-66
2022/08/01 11:23:53;;;;;;;5.60;5.30;;;26.10;95.80;;;;;;5013943;28;20683;-66
2022/08/01 11:26:20;;;;;;;5.90;5.50;;;26.20;96.60;;;;;;5014235;28;20870;-66
2022/08/01 11:29:07;;;;;;;5.40;5.10;;;26.20;95.80;;;;;;5013821;28;20425;-66
2022/08/01 11:31:33;;;;;;;5.13;4.93;;;26.20;95.90;;;;;;5014035;28;20477;-66
2022/08/01 11:34:00;;;;;;;4.63;4.43;;;26.10;96.80;;;;;;5012738;28;20464;-65
2022/08/01 11:36:26;;;;;;;4.93;4.73;;;26.00;97.60;;;;;;5013080;28;20481;-66
2022/08/01 11:38:58;;;;;;;3.90;3.70;;;26.00;98.20;;;;;;5013250;28;20421;-65
2022/08/01 11:41:30;;;;;;;5.30;5.03;;;26.10;99.90;;;;;;5013971;28;20422;-66
2022/08/01 11:44:10;;;;;;;5.37;5.10;;;26.20;99.50;;;;;;5013248;28;20434;-66
2022/08/01 11:46:55;;;;;;;4.30;4.10;;;26.40;99.00;;;;;;5017029;28;20421;-67
2022/08/01 11:49:36;;;;;;;4.80;4.60;;;26.40;98.00;;;;;;5035856;28;20413;-66
2022/08/01 11:52:04;;;;;;;5.53;5.23;;;26.50;98.70;;;;;;5035879;28;20453;-65
2022/08/01 11:54:33;;;;;;;5.00;4.80;;;26.60;98.00;;;;;;5034327;28;20441;-65
2022/08/01 11:57:01;;;;;;;3.83;3.63;;;26.60;97.90;;;;;;5035132;28;20409;-66
2022/08/01 11:59:27;;;;;;;3.53;3.43;;;26.70;99.10;;;;;;5035668;28;20416;-66
2022/08/01 12:01:53;;;;;;;4.23;4.10;;;26.80;98.20;;;;;;5035028;28;20413;-66
2022/08/01 12:04:19;;;;;;;8.10;5.23;;;26.90;98.10;;;;;;5035865;28;20920;-66
2022/08/01 12:06:46;;;;;;;5.80;5.60;;;27.10;96.80;;;;;;5034898;28;20424;-66
2022/08/01 12:09:23;;;;;;;4.90;4.70;;;27.20;96.60;;;;;;5035437;28;20762;-66
2022/08/01 12:11:49;;;;;;;5.40;5.20;;;27.40;97.20;;;;;;5034827;28;20923;-66
2022/08/01 12:14:21;;;;;;;5.50;5.20;;;27.50;95.80;;;;;;5028488;28;20779;-66
2022/08/01 12:16:53;;;;;;;5.80;5.50;;;27.50;94.60;;;;;;5033759;28;20432;-65
2022/08/01 12:19:21;;;;;;;5.90;5.50;;;27.60;94.60;;;;;;5032111;28;20444;-66
2022/08/01 12:22:13;;;;;;;4.90;4.70;;;27.60;94.50;;;;;;5033688;28;20586;-65
2022/08/01 12:24:41;;;;;;;5.33;5.10;;;27.70;93.70;;;;;;5026115;28;20940;-66
2022/08/01 12:27:09;;;;;;;4.33;4.13;;;27.70;93.50;;;;;;5031915;28;20896;-66
2022/08/01 12:29:45;;;;;;;5.97;5.47;;;27.50;93.80;;;;;;5024547;28;20507;-70
2022/08/01 12:32:23;;;;;;;5.70;5.50;;;27.40;93.50;;;;;;5031725;28;20471;-70
2022/08/01 12:34:49;;;;;;;3.90;3.80;;;27.20;94.00;;;;;;5033487;28;20428;-70
2022/08/01 12:37:16;;;;;;;4.47;4.27;;;27.00;94.10;;;;;;5021359;28;20449;-70
2022/08/01 12:39:44;;;;;;;4.30;4.20;;;26.90;94.50;;;;;;5034308;28;20402;-70
2022/08/01 12:42:11;;;;;;;4.30;4.10;;;26.80;94.70;;;;;;5041130;28;20447;-70
2022/08/01 12:44:38;;;;;;;3.90;3.80;;;26.90;95.10;;;;;;5054740;28;20413;-70